Time;durP1;ratioP1;P1;durP2;ratioP2;P2;SDS_P1;SDS_P2;PMS_P1;PMS_P2;Temp;Humidity;BMP_temperature;BMP_pressure;BME280_temperature;BME280_humidity;BME280_pressure;Samples;Min_cycle;Max_cycle;Signal;HPM_P1;HPM_P2
2023/05/21 00:02:02;;;;;;;0.10;0.10;;;;;;;-145.06;100.00;92479.56;10350650;28;20018;-73
2023/05/21 00:07:03;;;;;;;0.10;0.10;;;;;;;-145.06;100.00;92500.00;10321807;28;20041;-73
2023/05/21 00:12:05;;;;;;;0.10;0.10;;;;;;;-145.06;100.00;92528.63;10330090;28;20034;-73
2023/05/21 00:17:05;;;;;;;0.08;0.08;;;;;;;-145.06;100.00;92497.97;10339346;28;20112;-73
2023/05/21 00:22:06;;;;;;;0.10;0.10;;;;;;;-145.06;100.00;92514.31;10331780;28;20062;-73
2023/05/21 00:27:06;;;;;;;0.10;0.10;;;;;;;-145.06;100.00;92514.31;10330865;28;20076;-73
2023/05/21 00:32:06;;;;;;;0.10;0.10;;;;;;;-145.06;100.00;92510.22;10326916;28;20465;-73
2023/05/21 00:37:08;;;;;;;0.10;0.10;;;;;;;-145.06;100.00;92506.13;10333571;28;20392;-73
2023/05/21 00:42:09;;;;;;;0.00;0.00;;;;;;;-145.06;100.00;92538.84;10334091;28;20025;-73
2023/05/21 00:47:09;;;;;;;0.00;0.00;;;;;;;-145.06;100.00;92553.16;10335039;28;20022;-72
2023/05/21 00:52:10;;;;;;;0.00;0.00;;;;;;;-145.06;100.00;92608.38;10338218;28;20026;-72
2023/05/21 00:57:10;;;;;;;0.00;0.00;;;;;;;-145.06;100.00;92553.16;10312239;28;20077;-72
2023/05/21 01:02:13;;;;;;;0.00;0.00;;;;;;;-145.06;100.00;92557.25;10336587;28;20014;-72
2023/05/21 01:07:13;;;;;;;0.10;0.10;;;;;;;-145.06;100.00;92561.34;10351629;28;20134;-72
2023/05/21 01:12:16;;;;;;;0.00;0.00;;;;;;;-145.06;100.00;92567.47;10348376;28;20030;-72
2023/05/21 01:17:17;;;;;;;0.00;0.00;;;;;;;-145.06;100.00;92561.34;10312330;28;20030;-72
2023/05/21 01:22:20;;;;;;;0.10;0.10;;;;;;;-145.06;100.00;92536.81;10322719;28;20018;-72
2023/05/21 01:27:21;;;;;;;0.00;0.00;;;;;;;-145.06;100.00;92587.94;10334050;28;20428;-72
2023/05/21 01:32:30;;;;;;;0.10;0.10;;;;;;;-145.06;100.00;92538.84;10334926;28;20026;-72
2023/05/21 01:37:50;;;;;;;0.10;0.10;;;;;;;-145.06;100.00;92581.78;10331029;28;20088;-72
2023/05/21 01:42:51;;;;;;;0.10;0.10;;;;;;;-145.06;100.00;92565.44;10331607;28;20052;-72
2023/05/21 01:47:53;;;;;;;0.00;0.00;;;;;;;-145.06;100.00;92581.78;10334381;28;20156;-72
2023/05/21 01:52:59;;;;;;;0.05;0.05;;;;;;;-145.06;100.00;92569.53;10331739;28;20026;-72
2023/05/21 01:58:00;;;;;;;0.00;0.00;;;;;;;-145.06;100.00;92598.16;10326828;28;20114;-72
2023/05/21 02:03:00;;;;;;;0.10;0.10;;;;;;;-145.06;100.00;92592.00;10342562;28;20378;-72
2023/05/21 02:08:01;;;;;;;0.00;0.00;;;;;;;-145.06;100.00;92557.25;10325370;28;20018;-72
2023/05/21 02:13:01;;;;;;;0.10;0.10;;;;;;;-145.06;100.00;92553.16;10355883;28;20389;-72
2023/05/21 02:18:02;;;;;;;0.00;0.00;;;;;;;-145.06;100.00;92602.25;10348843;28;20037;-72
2023/05/21 02:23:02;;;;;;;0.10;0.10;;;;;;;-145.06;100.00;92606.34;10334744;28;20064;-72
2023/05/21 02:28:03;;;;;;;0.10;0.10;;;;;;;-145.06;100.00;92573.63;10338794;28;20390;-72
2023/05/21 02:33:04;;;;;;;0.00;0.00;;;;;;;-145.06;100.00;92628.81;10327084;28;20022;-72
2023/05/21 02:38:04;;;;;;;0.00;0.00;;;;;;;-145.06;100.00;92643.13;10328536;28;20026;-72
2023/05/21 02:43:05;;;;;;;0.00;0.00;;;;;;;-145.06;100.00;92630.88;10310409;28;20516;-72
2023/05/21 02:48:05;;;;;;;0.00;0.00;;;;;;;-145.06;100.00;92643.13;10326557;28;20080;-72
2023/05/21 02:53:06;;;;;;;0.00;0.00;;;;;;;-145.06;100.00;92632.91;10325409;28;20026;-72
2023/05/21 02:58:06;;;;;;;0.10;0.10;;;;;;;-145.06;100.00;92675.84;10308750;28;20018;-72
2023/05/21 03:03:06;;;;;;;0.00;0.00;;;;;;;-145.06;100.00;92651.31;10331633;28;20469;-72
2023/05/21 03:08:07;;;;;;;0.00;0.00;;;;;;;-145.06;100.00;92667.69;10348636;28;20072;-72
2023/05/21 03:13:07;;;;;;;0.00;0.00;;;;;;;-145.06;100.00;92661.53;10326682;28;20073;-72
2023/05/21 03:18:07;;;;;;;0.00;0.00;;;;;;;-145.06;100.00;92667.69;10331453;28;20285;-73
2023/05/21 03:23:08;;;;;;;0.00;0.00;;;;;;;-145.06;100.00;92634.97;10376234;22;20531;-76
2023/05/21 03:28:11;;;;;;;0.00;0.00;;;;;;;-145.06;100.00;92628.81;10347537;28;20025;-75
2023/05/21 03:33:12;;;;;;;0.10;0.10;;;;;;;-145.06;100.00;92571.56;10364471;28;20400;-75
2023/05/21 03:38:13;;;;;;;0.10;0.10;;;;;;;-145.06;100.00;92569.53;10359489;28;20059;-76
2023/05/21 03:43:13;;;;;;;0.10;0.10;;;;;;;-145.06;100.00;92393.66;10359587;28;20030;-75
2023/05/21 03:48:17;;;;;;;0.00;0.00;;;;;;;-145.06;100.00;92005.19;10337408;28;20041;-75
2023/05/21 03:53:18;;;;;;;0.10;0.10;;;;;;;-145.06;100.00;92001.09;10362131;28;20026;-76
2023/05/21 03:58:18;;;;;;;0.00;0.00;;;;;;;-145.06;100.00;92009.28;10352922;28;20034;-76
2023/05/21 04:03:18;;;;;;;0.08;0.08;;;;;;;-145.06;100.00;92099.25;10350938;28;20022;-76
2023/05/21 04:08:18;;;;;;;0.03;0.03;;;;;;;-145.06;100.00;92080.84;10349858;28;20030;-76
2023/05/21 04:13:19;;;;;;;0.10;0.10;;;;;;;-145.06;100.00;92033.81;10347278;28;20021;-76
2023/05/21 04:18:22;;;;;;;0.03;0.03;;;;;;;-145.06;100.00;91972.47;10359786;28;20444;-75
2023/05/21 04:23:23;;;;;;;0.05;0.05;;;;;;;-145.06;100.00;91659.69;10367921;28;20210;-76
2023/05/21 04:28:23;;;;;;;0.10;0.10;;;;;;;-145.06;100.00;91878.44;10361024;28;20388;-75
2023/05/21 04:33:24;;;;;;;0.10;0.10;;;;;;;-145.06;100.00;91929.53;10368574;28;20064;-76
2023/05/21 04:38:24;;;;;;;0.00;0.00;;;;;;;-145.06;100.00;91950.00;10355096;28;20088;-75
2023/05/21 04:43:25;;;;;;;0.00;0.00;;;;;;;-145.06;100.00;91960.22;10369267;28;20432;-75
2023/05/21 04:48:26;;;;;;;0.00;0.00;;;;;;;-145.06;100.00;91962.25;10343628;28;20021;-76
2023/05/21 04:53:26;;;;;;;0.10;0.10;;;;;;;-145.06;100.00;91943.84;10354848;28;20018;-76
2023/05/21 04:58:27;;;;;;;0.10;0.10;;;;;;;-145.06;100.00;92005.19;10354995;28;20495;-76
2023/05/21 05:03:28;;;;;;;0.10;0.10;;;;;;;-145.06;100.00;91978.59;10343899;28;20024;-76
2023/05/21 05:08:29;;;;;;;0.20;0.20;;;;;;;-145.06;100.00;91927.50;10365623;28;20025;-76
2023/05/21 05:13:30;;;;;;;0.10;0.10;;;;;;;-145.06;100.00;91939.75;10359089;28;20052;-76
2023/05/21 05:18:30;;;;;;;0.10;0.10;;;;;;;-145.06;100.00;91882.50;10347132;28;20022;-76
2023/05/21 05:23:31;;;;;;;0.10;0.10;;;;;;;-145.06;100.00;91825.28;10355182;28;20018;-76
2023/05/21 05:28:31;;;;;;;0.10;0.10;;;;;;;-145.06;100.00;91702.59;10355144;28;20587;-76
2023/05/21 05:33:31;;;;;;;0.10;0.10;;;;;;;-145.06;100.00;91676.03;10354175;28;20477;-76
2023/05/21 05:38:33;;;;;;;0.10;0.10;;;;;;;-145.06;100.00;91385.75;10350421;28;20048;-76
2023/05/21 05:43:33;;;;;;;0.10;0.10;;;;;;;-145.06;100.00;91565.63;10362700;28;20033;-76
2023/05/21 05:48:33;;;;;;;0.10;0.10;;;;;;;-145.06;100.00;91326.47;10354970;28;20017;-76
2023/05/21 05:53:34;;;;;;;0.00;0.00;;;;;;;-145.06;100.00;91426.63;10357569;28;20054;-76
2023/05/21 05:58:34;;;;;;;0.03;0.03;;;;;;;-145.06;100.00;91408.22;10344029;28;20036;-76
2023/05/21 06:03:34;;;;;;;0.10;0.10;;;;;;;-145.06;99.27;91375.50;10359705;28;20080;-76
2023/05/21 06:08:35;;;;;;;0.10;0.10;;;;;;;-145.06;97.05;91293.75;10360299;28;20225;-76
2023/05/21 06:13:35;;;;;;;0.00;0.00;;;;;;;-145.06;97.32;91285.56;10364580;28;20022;-76
2023/05/21 06:18:36;;;;;;;0.10;0.10;;;;;;;-145.06;95.44;91246.72;10362282;28;20295;-76
2023/05/21 06:23:37;;;;;;;0.00;0.00;;;;;;;-145.06;95.38;91224.25;10363915;28;20076;-76
2023/05/21 06:28:37;;;;;;;0.10;0.10;;;;;;;-145.06;92.79;91232.41;10366786;28;20097;-76
2023/05/21 06:33:37;;;;;;;0.00;0.00;;;;;;;-145.06;90.30;91199.72;10363572;28;20086;-76
2023/05/21 06:38:38;;;;;;;0.07;0.07;;;;;;;-145.06;92.41;91322.38;10340570;28;20026;-75
2023/05/21 06:43:38;;;;;;;0.10;0.10;;;;;;;-145.06;94.31;91383.69;10344689;28;20257;-76
2023/05/21 06:48:38;;;;;;;0.00;0.00;;;;;;;-145.06;97.07;91469.56;10330637;28;20025;-76
2023/05/21 06:53:38;;;;;;;0.10;0.10;;;;;;;-145.06;98.64;91510.44;10311587;28;20551;-76
2023/05/21 06:58:39;;;;;;;0.10;0.10;;;;;;;-145.06;100.00;91526.78;10350545;28;20030;-76
2023/05/21 07:03:40;;;;;;;0.10;0.10;;;;;;;-145.06;100.00;91520.66;10370797;28;20021;-76
2023/05/21 07:08:40;;;;;;;0.00;0.00;;;;;;;-145.06;100.00;91492.03;10369962;28;20022;-76
2023/05/21 07:13:40;;;;;;;0.10;0.10;;;;;;;-145.06;100.00;91461.38;10368962;28;20089;-76
2023/05/21 07:18:40;;;;;;;0.10;0.10;;;;;;;-145.06;100.00;91543.16;10367507;28;20026;-76
2023/05/21 07:23:41;;;;;;;0.10;0.10;;;;;;;-145.06;100.00;91457.28;10368706;28;20393;-76
2023/05/21 07:28:41;;;;;;;0.10;0.10;;;;;;;-145.06;100.00;91436.84;10367268;28;20132;-76
2023/05/21 07:33:41;;;;;;;0.10;0.10;;;;;;;-145.06;99.96;91377.56;10367638;28;20424;-76
2023/05/21 07:38:43;;;;;;;0.10;0.10;;;;;;;-145.06;99.26;91332.59;10352368;28;20022;-76
2023/05/21 07:43:43;;;;;;;0.08;0.08;;;;;;;-145.06;98.95;91285.56;10370255;28;20071;-74
2023/05/21 07:48:43;;;;;;;0.10;0.10;;;;;;;-145.06;96.31;91214.03;10363539;28;20462;-76
2023/05/21 07:53:44;;;;;;;0.10;0.10;;;;;;;-145.06;93.44;91134.31;10345223;28;20022;-74
2023/05/21 07:58:44;;;;;;;0.10;0.10;;;;;;;-145.06;95.13;91173.16;10363452;28;20018;-74
2023/05/21 08:03:44;;;;;;;0.00;0.00;;;;;;;-145.06;91.72;91028.00;10344662;28;20469;-74
2023/05/21 08:08:45;;;;;;;0.00;0.00;;;;;;;-145.06;90.53;91032.09;10375312;28;20403;-76
2023/05/21 08:13:45;;;;;;;0.10;0.10;;;;;;;-145.06;90.63;91085.25;10355556;28;20033;-74
2023/05/21 08:18:46;;;;;;;0.10;0.10;;;;;;;-145.06;91.56;91089.34;10360905;28;20029;-76
2023/05/21 08:23:46;;;;;;;0.00;0.00;;;;;;;-145.06;88.92;91023.91;10360915;28;20337;-76
2023/05/21 08:28:46;;;;;;;0.00;0.00;;;;;;;-145.06;89.12;91038.22;10373863;28;20563;-74
2023/05/21 08:33:51;;;;;;;0.10;0.10;;;;;;;-145.06;89.62;91052.53;10357108;28;20041;-74
2023/05/21 08:38:51;;;;;;;0.10;0.10;;;;;;;-145.06;91.34;91034.16;10356807;28;20053;-76
2023/05/21 08:43:56;;;;;;;0.10;0.10;;;;;;;-145.06;89.93;91075.03;10346376;28;20076;-74
2023/05/21 08:48:57;;;;;;;0.10;0.10;;;;;;;-145.06;89.39;91087.28;10333238;28;20469;-74
2023/05/21 08:54:00;;;;;;;0.10;0.10;;;;;;;-145.06;90.80;91087.28;10356408;28;20041;-74
2023/05/21 08:59:01;;;;;;;0.10;0.10;;;;;;;-145.06;91.42;91099.56;10367232;28;20034;-77
2023/05/21 09:04:02;;;;;;;0.00;0.00;;;;;;;-145.06;91.41;91175.19;10357543;28;20034;-74
2023/05/21 09:09:18;;;;;;;0.10;0.10;;;;;;;-145.06;92.41;91207.91;10369266;28;20385;-74
2023/05/21 09:14:20;;;;;;;0.00;0.00;;;;;;;-145.06;93.40;91191.53;10367895;28;20037;-76
2023/05/21 09:19:23;;;;;;;0.10;0.10;;;;;;;-145.06;92.11;91234.47;10373849;23;20092;-75
2023/05/21 09:24:23;;;;;;;0.10;0.10;;;;;;;-145.06;96.26;91203.81;10368352;28;20169;-76
2023/05/21 09:29:25;;;;;;;0.00;0.00;;;;;;;-145.06;94.16;91222.19;10359241;28;20374;-76
2023/05/21 09:34:26;;;;;;;0.03;0.03;;;;;;;-145.06;93.07;91214.03;10355880;28;20069;-76
2023/05/21 09:39:30;;;;;;;0.13;0.10;;;;;;;-145.06;95.21;91232.41;10359068;28;20566;-76
2023/05/21 09:44:31;;;;;;;0.00;0.00;;;;;;;-145.06;94.77;91193.59;10353100;28;20105;-76
2023/05/21 09:49:31;;;;;;;0.00;0.00;;;;;;;-145.06;95.76;91224.25;10361958;28;20121;-75
2023/05/21 09:54:32;;;;;;;0.00;0.00;;;;;;;-145.06;94.44;91173.16;10366638;28;20507;-75
2023/05/21 09:59:40;;;;;;;0.00;0.00;;;;;;;-145.06;91.95;91124.09;10337722;28;20401;-76
2023/05/21 10:04:41;;;;;;;0.00;0.00;;;;;;;-145.06;95.15;91072.97;10359024;28;20105;-76
2023/05/21 10:09:45;;;;;;;0.00;0.00;;;;;;;-145.06;93.90;91017.78;10358616;28;20022;-76
2023/05/21 10:14:50;;;;;;;0.00;0.00;;;;;;;-145.06;90.73;90919.69;10346362;28;20026;-76
2023/05/21 10:19:52;;;;;;;0.00;0.00;;;;;;;-145.06;90.90;90915.59;10348784;28;20037;-76
2023/05/21 10:24:53;;;;;;;0.00;0.00;;;;;;;-145.06;90.13;90882.88;10340276;28;20041;-76
2023/05/21 10:29:56;;;;;;;0.00;0.00;;;;;;;-145.06;90.15;90801.13;10348612;28;20477;-76
2023/05/21 10:34:57;;;;;;;0.10;0.10;;;;;;;-145.06;85.88;90752.06;10362314;28;20017;-76
2023/05/21 10:39:57;;;;;;;0.10;0.10;;;;;;;-145.06;84.78;90739.81;10365398;28;20034;-76
2023/05/21 10:45:04;;;;;;;0.00;0.00;;;;;;;-145.06;82.84;90729.59;10364650;28;20473;-76
2023/05/21 10:50:45;;;;;;;0.10;0.10;;;;;;;-145.06;83.07;90688.72;10360802;28;20496;-78
2023/05/21 10:56:24;;;;;;;0.00;0.00;;;;;;;-145.06;81.25;90647.84;10354592;28;20045;-76
2023/05/21 11:01:32;;;;;;;0.00;0.00;;;;;;;-145.06;77.52;90680.53;10369007;28;20296;-76
2023/05/21 11:06:33;;;;;;;0.00;0.00;;;;;;;-145.06;80.11;90684.63;10349280;28;20037;-75
2023/05/21 11:11:45;;;;;;;0.00;0.00;;;;;;;-145.06;78.74;90666.22;10360558;28;20022;-76
2023/05/21 11:16:45;;;;;;;0.00;0.00;;;;;;;-145.06;77.45;90692.81;10357472;28;20022;-76
2023/05/21 11:21:50;;;;;;;0.00;0.00;;;;;;;-145.06;77.91;90637.63;10367231;28;20530;-76
2023/05/21 11:26:51;;;;;;;0.00;0.00;;;;;;;-145.06;77.68;90635.56;10366760;28;20049;-76
2023/05/21 11:32:01;;;;;;;0.00;0.00;;;;;;;-145.06;77.67;90660.09;10358451;28;20022;-76
2023/05/21 11:37:29;;;;;;;0.00;0.00;;;;;;;-145.06;76.72;90637.63;10358792;28;20164;-76
2023/05/21 11:42:37;;;;;;;0.00;0.00;;;;;;;-145.06;77.34;90641.69;10371175;28;20042;-76
2023/05/21 11:47:39;;;;;;;0.00;0.00;;;;;;;-145.06;73.51;90623.31;10376434;28;20108;-76
2023/05/21 11:52:43;;;;;;;0.00;0.00;;;;;;;-145.06;74.89;90645.78;10371769;28;20397;-76
2023/05/21 11:57:43;;;;;;;0.00;0.00;;;;;;;-145.06;74.86;90619.22;10373924;28;20034;-77
2023/05/21 12:02:50;;;;;;;0.00;0.00;;;;;;;-145.06;75.50;90635.56;10364793;28;20072;-77
2023/05/21 12:07:50;;;;;;;0.00;0.00;;;;;;;-145.06;74.92;90592.66;10373339;28;20057;-77
2023/05/21 12:12:51;;;;;;;0.00;0.00;;;;;;;-145.06;76.65;90688.72;10371543;28;20062;-75
2023/05/21 12:17:51;;;;;;;0.00;0.00;;;;;;;-145.06;74.15;90748.00;10371082;28;20030;-75
2023/05/21 12:22:52;;;;;;;0.00;0.00;;;;;;;-145.06;74.84;90703.03;10359765;28;20030;-77
2023/05/21 12:27:57;;;;;;;0.00;0.00;;;;;;;-145.06;76.52;90723.47;10371633;28;20037;-76
2023/05/21 12:32:58;;;;;;;0.00;0.00;;;;;;;-145.06;76.88;90678.50;10353661;28;20030;-77
2023/05/21 12:38:02;;;;;;;0.00;0.00;;;;;;;-145.06;74.67;90611.03;10369846;28;20026;-76
2023/05/21 12:43:04;;;;;;;0.10;0.10;;;;;;;-145.06;73.06;90566.09;10361341;28;20026;-76
2023/05/21 12:48:04;;;;;;;0.00;0.00;;;;;;;-145.06;74.82;90566.09;10362863;28;20086;-75
2023/05/21 12:53:08;;;;;;;0.00;0.00;;;;;;;-145.06;75.76;90604.91;10368899;28;20507;-77
2023/05/21 12:58:12;;;;;;;0.00;0.00;;;;;;;-145.06;74.46;90586.53;10369849;28;20360;-77
2023/05/21 13:03:13;;;;;;;0.00;0.00;;;;;;;-145.06;73.55;90572.22;10351947;28;21005;-76
2023/05/21 13:08:15;;;;;;;0.10;0.10;;;;;;;-145.06;73.48;90553.81;10360777;28;20499;-76
2023/05/21 13:13:15;;;;;;;0.00;0.00;;;;;;;-145.06;72.92;90586.53;10360058;28;20076;-76
2023/05/21 13:18:16;;;;;;;0.00;0.00;;;;;;;-145.06;73.32;90539.50;10362305;28;20477;-76
2023/05/21 13:23:16;;;;;;;0.00;0.00;;;;;;;-145.06;73.57;90537.47;10367911;28;20477;-76
2023/05/21 13:28:17;;;;;;;0.10;0.10;;;;;;;-145.06;75.82;90619.22;10361625;28;20026;-76
2023/05/21 13:33:17;;;;;;;0.00;0.00;;;;;;;-145.06;77.60;90580.38;10362175;28;20030;-76
2023/05/21 13:38:17;;;;;;;0.00;0.00;;;;;;;-145.06;72.14;90537.47;10352819;28;20024;-77
2023/05/21 13:43:17;;;;;;;0.00;0.00;;;;;;;-145.06;72.92;90562.00;10349848;28;20058;-76
2023/05/21 13:48:18;;;;;;;0.00;0.00;;;;;;;-145.06;74.37;90566.09;10345279;28;20389;-77
2023/05/21 13:53:18;;;;;;;0.00;0.00;;;;;;;-145.06;75.34;90590.59;10350319;28;20033;-77
2023/05/21 13:58:18;;;;;;;0.00;0.00;;;;;;;-145.06;73.03;90566.09;10354818;28;20034;-76
2023/05/21 14:03:19;;;;;;;0.00;0.00;;;;;;;-145.06;74.99;90592.66;10356123;28;20040;-77
2023/05/21 14:08:20;;;;;;;0.00;0.00;;;;;;;-145.06;75.14;90515.00;10359493;28;20029;-77
2023/05/21 14:13:21;;;;;;;0.00;0.00;;;;;;;-145.06;71.86;90492.50;10367060;28;20499;-75
2023/05/21 14:18:21;;;;;;;0.00;0.00;;;;;;;-145.06;70.42;90492.50;10365947;28;20032;-77
2023/05/21 14:23:21;;;;;;;0.00;0.00;;;;;;;-145.06;70.63;90574.25;10361163;28;20076;-77
2023/05/21 14:28:21;;;;;;;0.00;0.00;;;;;;;-145.06;71.43;90543.59;10367381;28;20057;-77
2023/05/21 14:33:22;;;;;;;0.00;0.00;;;;;;;-145.06;73.67;90559.94;10344555;28;20083;-76
2023/05/21 14:38:22;;;;;;;0.10;0.10;;;;;;;-145.06;71.11;90537.47;10362374;28;20022;-76
2023/05/21 14:43:22;;;;;;;0.00;0.00;;;;;;;-145.06;70.55;90482.28;10361352;28;20099;-76
2023/05/21 14:48:23;;;;;;;0.00;0.00;;;;;;;-145.06;71.08;90486.38;10366261;28;20284;-77
2023/05/21 14:53:24;;;;;;;0.00;0.00;;;;;;;-145.06;68.11;90537.47;10364115;28;20112;-75
2023/05/21 14:58:24;;;;;;;0.00;0.00;;;;;;;-145.06;71.72;90459.81;10344207;28;20022;-75
2023/05/21 15:03:25;;;;;;;0.00;0.00;;;;;;;-145.06;68.03;90439.38;10337295;28;20053;-76
2023/05/21 15:08:25;;;;;;;0.10;0.10;;;;;;;-145.06;68.38;90398.50;10345909;28;20025;-76
2023/05/21 15:13:26;;;;;;;0.00;0.00;;;;;;;-145.06;67.08;90392.38;10362074;28;20380;-76
2023/05/21 15:18:28;;;;;;;0.00;0.00;;;;;;;-145.06;67.49;90369.88;10349638;28;20038;-76
2023/05/21 15:23:28;;;;;;;0.00;0.00;;;;;;;-145.06;65.09;90382.13;10349345;28;20477;-76
2023/05/21 15:28:28;;;;;;;0.00;0.00;;;;;;;-145.06;65.09;90433.25;10356518;28;20028;-76
2023/05/21 15:33:29;;;;;;;0.10;0.10;;;;;;;-145.06;65.69;90496.59;10359458;28;20037;-76
2023/05/21 15:38:29;;;;;;;0.00;0.00;;;;;;;-145.06;67.74;90545.66;10357280;28;20022;-76
2023/05/21 15:43:29;;;;;;;0.10;0.10;;;;;;;-145.06;70.48;90588.56;10357993;28;20302;-77
2023/05/21 15:48:29;;;;;;;0.00;0.00;;;;;;;-145.06;67.43;90568.13;10360078;28;20493;-76
2023/05/21 15:53:30;;;;;;;0.00;0.00;;;;;;;-145.06;68.63;90623.31;10355409;28;20037;-77
2023/05/21 15:58:30;;;;;;;0.00;0.00;;;;;;;-145.06;67.72;90682.59;10351555;28;20091;-77
2023/05/21 16:03:31;;;;;;;0.00;0.00;;;;;;;-145.06;68.28;90674.41;10371177;28;20030;-76
2023/05/21 16:08:31;;;;;;;0.10;0.10;;;;;;;-145.06;70.04;90606.97;10372046;28;20018;-76
2023/05/21 16:13:31;;;;;;;0.07;0.07;;;;;;;-145.06;69.03;90629.44;10364479;28;20042;-75
2023/05/21 16:18:32;;;;;;;0.10;0.10;;;;;;;-145.06;68.71;90631.47;10363356;28;20413;-75
2023/05/21 16:23:33;;;;;;;0.00;0.00;;;;;;;-145.06;70.63;90733.69;10357038;28;20044;-74
2023/05/21 16:28:33;;;;;;;0.00;0.00;;;;;;;-145.06;69.56;90745.94;10347703;28;20029;-74
2023/05/21 16:33:34;;;;;;;0.00;0.00;;;;;;;-145.06;71.36;90884.94;10367557;28;20034;-74
2023/05/21 16:38:34;;;;;;;0.10;0.10;;;;;;;-145.06;72.51;91001.44;10352321;28;20481;-76
2023/05/21 16:43:36;;;;;;;0.00;0.00;;;;;;;-145.06;70.53;91064.81;10358060;28;20031;-76
2023/05/21 16:48:38;;;;;;;0.03;0.03;;;;;;;-145.06;71.62;91097.50;10359203;28;20104;-76
2023/05/21 16:53:38;;;;;;;0.00;0.00;;;;;;;-145.06;72.24;91138.41;10355862;28;20045;-76
2023/05/21 16:58:38;;;;;;;0.00;0.00;;;;;;;-145.06;71.93;91191.53;10355064;28;20109;-76
2023/05/21 17:03:38;;;;;;;0.00;0.00;;;;;;;-145.06;70.56;91173.16;10349491;28;20030;-75
2023/05/21 17:08:40;;;;;;;0.00;0.00;;;;;;;-145.06;72.59;91238.56;10365837;28;20362;-74
2023/05/21 17:13:41;;;;;;;0.00;0.00;;;;;;;-145.06;72.37;91289.66;10339647;28;20025;-75
2023/05/21 17:18:41;;;;;;;0.00;0.00;;;;;;;-145.06;70.73;91271.25;10365794;28;20018;-76
2023/05/21 17:23:41;;;;;;;0.00;0.00;;;;;;;-145.06;72.71;91244.69;10360616;28;20025;-75
2023/05/21 17:28:42;;;;;;;0.00;0.00;;;;;;;-145.06;77.16;91277.41;10352862;28;20072;-76
2023/05/21 17:33:42;;;;;;;0.00;0.00;;;;;;;-145.06;81.74;91353.03;10359867;28;20025;-76
2023/05/21 17:38:43;;;;;;;0.10;0.10;;;;;;;-145.06;82.21;91414.34;10364023;28;20022;-76
2023/05/21 17:43:44;;;;;;;0.00;0.00;;;;;;;-145.06;82.62;91440.94;10355158;28;20037;-76
2023/05/21 17:48:44;;;;;;;0.00;0.00;;;;;;;-145.06;82.31;91445.03;10351720;28;20417;-75
2023/05/21 17:53:45;;;;;;;0.00;0.00;;;;;;;-145.06;83.67;91477.72;10363728;28;20029;-75
2023/05/21 17:58:52;;;;;;;0.10;0.10;;;;;;;-145.06;84.94;91483.88;10490538;27;20399;-76
2023/05/21 18:03:52;;;;;;;0.00;0.00;;;;;;;-145.06;84.92;91539.06;10483603;28;20134;-74
2023/05/21 18:08:52;;;;;;;0.10;0.10;;;;;;;-145.06;85.19;91584.03;10485773;28;20328;-76
2023/05/21 18:13:53;;;;;;;0.00;0.00;;;;;;;-145.06;85.10;91600.38;10483164;28;20025;-74
2023/05/21 18:18:53;;;;;;;0.00;0.00;;;;;;;-145.06;85.88;91606.53;10484218;28;20056;-74
2023/05/21 18:23:54;;;;;;;0.10;0.10;;;;;;;-145.06;86.31;91655.59;10484954;28;20387;-76
2023/05/21 18:28:57;;;;;;;0.00;0.00;;;;;;;-145.06;86.22;91639.22;10489651;28;20499;-75
2023/05/21 18:33:58;;;;;;;0.00;0.00;;;;;;;-145.06;87.50;91637.19;10487110;28;20031;-76
2023/05/21 18:38:58;;;;;;;0.00;0.00;;;;;;;-145.06;90.02;91694.44;10496503;28;20386;-76
2023/05/21 18:44:00;;;;;;;0.00;0.00;;;;;;;-145.06;92.09;91725.09;10485070;28;20375;-75
2023/05/21 18:49:00;;;;;;;0.00;0.00;;;;;;;-145.06;93.88;91763.94;10483715;28;20025;-75
2023/05/21 18:54:01;;;;;;;0.10;0.10;;;;;;;-145.06;96.14;91796.66;10482757;28;20396;-75
2023/05/21 18:59:01;;;;;;;0.10;0.10;;;;;;;-145.06;97.99;91798.69;10484664;28;20032;-75
2023/05/21 19:04:02;;;;;;;0.00;0.00;;;;;;;-145.06;100.00;91857.97;10481814;28;20033;-75
2023/05/21 19:09:02;;;;;;;0.00;0.00;;;;;;;-145.06;100.00;91874.34;10462012;28;20035;-75
2023/05/21 19:14:03;;;;;;;0.00;0.00;;;;;;;-145.06;100.00;91882.50;10455399;28;20021;-75
2023/05/21 19:19:03;;;;;;;0.00;0.00;;;;;;;-145.06;100.00;91960.22;10456170;28;20108;-75
2023/05/21 19:24:04;;;;;;;0.00;0.00;;;;;;;-145.06;100.00;91878.44;10454564;28;20028;-75
2023/05/21 19:29:04;;;;;;;0.10;0.10;;;;;;;-145.06;100.00;91892.75;10454775;28;20029;-75
2023/05/21 19:34:09;;;;;;;0.00;0.00;;;;;;;-145.06;100.00;91937.72;10451783;28;20025;-75
2023/05/21 19:39:09;;;;;;;0.10;0.10;;;;;;;-145.06;100.00;91905.00;10453473;28;20384;-75
2023/05/21 19:44:10;;;;;;;0.10;0.10;;;;;;;-145.06;100.00;91919.31;10453899;28;20025;-75
2023/05/21 19:49:12;;;;;;;0.10;0.10;;;;;;;-145.06;100.00;91915.22;10453547;28;20451;-75
2023/05/21 19:54:13;;;;;;;0.00;0.00;;;;;;;-145.06;100.00;91958.16;10450642;28;20399;-75
2023/05/21 19:59:13;;;;;;;0.10;0.10;;;;;;;-145.06;100.00;91982.69;10452670;28;20104;-75
2023/05/21 20:04:13;;;;;;;0.00;0.00;;;;;;;-145.06;100.00;91997.00;10451729;28;20029;-75
2023/05/21 20:09:16;;;;;;;0.07;0.07;;;;;;;-145.06;100.00;91990.88;10451611;28;20286;-75
2023/05/21 20:14:17;;;;;;;0.00;0.00;;;;;;;-145.06;100.00;92021.53;10454003;28;20024;-75
2023/05/21 20:19:17;;;;;;;0.00;0.00;;;;;;;-145.06;100.00;91994.97;10456488;28;20025;-75
2023/05/21 20:24:17;;;;;;;0.00;0.00;;;;;;;-145.06;100.00;92029.72;10450197;28;20032;-75
2023/05/21 20:29:17;;;;;;;0.00;0.00;;;;;;;-145.06;100.00;92009.28;10454134;28;20025;-75
2023/05/21 20:34:19;;;;;;;0.00;0.00;;;;;;;-145.06;100.00;92005.19;10457948;28;20021;-75
2023/05/21 20:39:21;;;;;;;0.10;0.10;;;;;;;-145.06;100.00;91964.28;10458312;28;20028;-75
2023/05/21 20:44:22;;;;;;;0.00;0.00;;;;;;;-145.06;100.00;92035.84;10459884;28;20052;-75
2023/05/21 20:49:23;;;;;;;0.10;0.10;;;;;;;-145.06;100.00;92082.88;10450021;28;20454;-75
2023/05/21 20:54:23;;;;;;;0.10;0.10;;;;;;;-145.06;100.00;92070.63;10456659;28;20028;-74
2023/05/21 20:59:25;;;;;;;0.10;0.10;;;;;;;-145.06;100.00;92080.84;10458389;28;20033;-74
2023/05/21 21:04:26;;;;;;;0.10;0.10;;;;;;;-145.06;100.00;92082.88;10450684;28;20020;-74
2023/05/21 21:09:26;;;;;;;0.10;0.10;;;;;;;-145.06;100.00;92064.47;10461449;28;20479;-74
2023/05/21 21:14:26;;;;;;;0.10;0.10;;;;;;;-145.06;100.00;92068.56;10451631;28;20028;-74
2023/05/21 21:19:27;;;;;;;0.00;0.00;;;;;;;-145.06;100.00;92086.97;10454687;28;20032;-74
2023/05/21 21:24:27;;;;;;;0.10;0.10;;;;;;;-145.06;100.00;92089.03;10449859;28;20012;-74
2023/05/21 21:29:27;;;;;;;0.10;0.10;;;;;;;-145.06;100.00;92113.56;10454704;28;20025;-74
2023/05/21 21:34:28;;;;;;;0.10;0.10;;;;;;;-145.06;100.00;92146.25;10454944;28;20304;-74
2023/05/21 21:39:28;;;;;;;0.10;0.10;;;;;;;-145.06;100.00;92156.50;10451067;28;20033;-74
2023/05/21 21:44:28;;;;;;;0.00;0.00;;;;;;;-145.06;100.00;92146.25;10469807;22;20095;-76
2023/05/21 21:49:29;;;;;;;0.00;0.00;;;;;;;-145.06;100.00;92166.72;10482265;28;20035;-76
2023/05/21 21:54:29;;;;;;;0.00;0.00;;;;;;;-145.06;100.00;92164.66;10487581;28;20061;-78
2023/05/21 21:59:29;;;;;;;0.10;0.10;;;;;;;-145.06;100.00;92168.75;10489403;28;20052;-76
2023/05/21 22:04:30;;;;;;;0.10;0.10;;;;;;;-145.06;100.00;92189.19;10488461;28;20021;-76
2023/05/21 22:09:30;;;;;;;0.00;0.00;;;;;;;-145.06;100.00;92193.28;10487134;28;20031;-76
2023/05/21 22:14:30;;;;;;;0.00;0.00;;;;;;;-145.06;100.00;92181.03;10470677;28;20024;-77
2023/05/21 22:19:31;;;;;;;0.10;0.10;;;;;;;-145.06;100.00;92209.66;10489055;28;20029;-77
2023/05/21 22:24:31;;;;;;;0.03;0.03;;;;;;;-145.06;100.00;92217.81;10470013;28;20467;-77
2023/05/21 22:29:32;;;;;;;0.10;0.10;;;;;;;-145.06;100.00;92240.31;10489297;28;20079;-77
2023/05/21 22:34:32;;;;;;;0.10;0.10;;;;;;;-145.06;100.00;92219.88;10488291;28;20039;-77
2023/05/21 22:39:32;;;;;;;0.00;0.00;;;;;;;-145.06;100.00;92199.44;10465069;28;20112;-77
2023/05/21 22:44:33;;;;;;;0.13;0.13;;;;;;;-145.06;100.00;92242.38;10493593;28;20023;-76